sensor_id;sensor_type;location;lat;lon;timestamp;P1;durP1;ratioP1;P2;durP2;ratioP2
55372;SDS011;70018;47.838;16.490;2023-10-13T00:00:41;6.90;;;2.65;;
55372;SDS011;70018;47.838;16.490;2023-10-13T00:03:07;5.70;;;2.72;;
55372;SDS011;70018;47.838;16.490;2023-10-13T00:05:42;5.05;;;2.60;;
55372;SDS011;70018;47.838;16.490;2023-10-13T00:08:09;6.15;;;2.58;;
55372;SDS011;70018;47.838;16.490;2023-10-13T00:10:36;6.13;;;2.40;;
55372;SDS011;70018;47.838;16.490;2023-10-13T00:13:03;8.05;;;2.28;;
55372;SDS011;70018;47.838;16.490;2023-10-13T00:15:42;5.50;;;2.78;;
55372;SDS011;70018;47.838;16.490;2023-10-13T00:18:29;5.55;;;2.25;;
55372;SDS011;70018;47.838;16.490;2023-10-13T00:21:00;4.65;;;2.50;;
55372;SDS011;70018;47.838;16.490;2023-10-13T00:23:41;7.22;;;2.33;;
55372;SDS011;70018;47.838;16.490;2023-10-13T00:26:19;5.47;;;2.45;;
55372;SDS011;70018;47.838;16.490;2023-10-13T00:29:02;6.72;;;2.20;;
55372;SDS011;70018;47.838;16.490;2023-10-13T00:31:42;7.90;;;2.47;;
55372;SDS011;70018;47.838;16.490;2023-10-13T00:34:10;5.03;;;2.47;;
55372;SDS011;70018;47.838;16.490;2023-10-13T00:36:58;4.50;;;2.70;;
55372;SDS011;70018;47.838;16.490;2023-10-13T00:39:43;3.95;;;2.30;;
55372;SDS011;70018;47.838;16.490;2023-10-13T00:42:12;4.43;;;2.40;;
55372;SDS011;70018;47.838;16.490;2023-10-13T00:44:57;3.92;;;1.90;;
55372;SDS011;70018;47.838;16.490;2023-10-13T00:47:24;6.95;;;2.10;;
55372;SDS011;70018;47.838;16.490;2023-10-13T00:50:06;3.83;;;2.25;;
55372;SDS011;70018;47.838;16.490;2023-10-13T00:52:37;3.97;;;2.47;;
55372;SDS011;70018;47.838;16.490;2023-10-13T00:55:08;6.55;;;2.58;;
55372;SDS011;70018;47.838;16.490;2023-10-13T00:57:36;6.88;;;1.70;;
55372;SDS011;70018;47.838;16.490;2023-10-13T01:00:03;5.05;;;2.10;;
55372;SDS011;70018;47.838;16.490;2023-10-13T01:02:38;5.13;;;1.90;;
55372;SDS011;70018;47.838;16.490;2023-10-13T01:05:06;4.65;;;2.08;;
55372;SDS011;70018;47.838;16.490;2023-10-13T01:07:37;3.35;;;1.42;;
55372;SDS011;70018;47.838;16.490;2023-10-13T01:10:04;6.43;;;2.15;;
55372;SDS011;70018;47.838;16.490;2023-10-13T01:12:39;2.65;;;1.60;;
55372;SDS011;70018;47.838;16.490;2023-10-13T01:15:09;5.03;;;2.42;;
55372;SDS011;70018;47.838;16.490;2023-10-13T01:17:37;3.90;;;2.13;;
55372;SDS011;70018;47.838;16.490;2023-10-13T01:20:04;3.42;;;1.92;;
55372;SDS011;70018;47.838;16.490;2023-10-13T01:22:31;4.50;;;2.08;;
55372;SDS011;70018;47.838;16.490;2023-10-13T01:24:58;2.88;;;2.17;;
55372;SDS011;70018;47.838;16.490;2023-10-13T01:27:37;4.05;;;1.90;;
55372;SDS011;70018;47.838;16.490;2023-10-13T01:30:07;2.88;;;1.63;;
55372;SDS011;70018;47.838;16.490;2023-10-13T01:32:49;6.80;;;2.10;;
55372;SDS011;70018;47.838;16.490;2023-10-13T01:35:17;5.85;;;1.90;;
55372;SDS011;70018;47.838;16.490;2023-10-13T01:38:02;4.65;;;2.17;;
55372;SDS011;70018;47.838;16.490;2023-10-13T01:40:29;3.85;;;2.30;;
55372;SDS011;70018;47.838;16.490;2023-10-13T01:43:00;4.72;;;2.80;;
55372;SDS011;70018;47.838;16.490;2023-10-13T01:45:27;7.55;;;2.20;;
55372;SDS011;70018;47.838;16.490;2023-10-13T01:47:57;6.38;;;1.90;;
55372;SDS011;70018;47.838;16.490;2023-10-13T01:50:24;3.05;;;2.03;;
55372;SDS011;70018;47.838;16.490;2023-10-13T01:52:56;6.87;;;2.90;;
55372;SDS011;70018;47.838;16.490;2023-10-13T01:55:41;2.97;;;1.73;;
55372;SDS011;70018;47.838;16.490;2023-10-13T01:58:11;4.27;;;1.70;;
55372;SDS011;70018;47.838;16.490;2023-10-13T02:00:46;4.05;;;2.33;;
55372;SDS011;70018;47.838;16.490;2023-10-13T02:03:14;4.80;;;2.08;;
55372;SDS011;70018;47.838;16.490;2023-10-13T02:05:46;4.18;;;2.05;;
55372;SDS011;70018;47.838;16.490;2023-10-13T02:10:59;2.45;;;1.60;;
55372;SDS011;70018;47.838;16.490;2023-10-13T02:13:27;5.13;;;1.92;;
55372;SDS011;70018;47.838;16.490;2023-10-13T02:15:56;2.67;;;1.92;;
55372;SDS011;70018;47.838;16.490;2023-10-13T02:18:24;7.88;;;2.78;;
55372;SDS011;70018;47.838;16.490;2023-10-13T02:20:54;12.18;;;2.42;;
55372;SDS011;70018;47.838;16.490;2023-10-13T02:23:23;3.30;;;2.10;;
55372;SDS011;70018;47.838;16.490;2023-10-13T02:25:51;3.20;;;1.77;;
55372;SDS011;70018;47.838;16.490;2023-10-13T02:28:27;4.70;;;2.17;;
55372;SDS011;70018;47.838;16.490;2023-10-13T02:31:03;8.77;;;3.40;;
55372;SDS011;70018;47.838;16.490;2023-10-13T02:33:31;7.60;;;2.78;;
55372;SDS011;70018;47.838;16.490;2023-10-13T02:36:02;4.43;;;2.53;;
55372;SDS011;70018;47.838;16.490;2023-10-13T02:38:34;5.85;;;2.55;;
55372;SDS011;70018;47.838;16.490;2023-10-13T02:41:01;8.05;;;3.25;;
55372;SDS011;70018;47.838;16.490;2023-10-13T02:46:01;4.45;;;2.00;;
55372;SDS011;70018;47.838;16.490;2023-10-13T02:48:29;3.55;;;1.73;;
55372;SDS011;70018;47.838;16.490;2023-10-13T02:51:09;3.13;;;1.83;;
55372;SDS011;70018;47.838;16.490;2023-10-13T02:53:46;3.00;;;1.50;;
55372;SDS011;70018;47.838;16.490;2023-10-13T02:58:49;5.13;;;2.20;;
55372;SDS011;70018;47.838;16.490;2023-10-13T03:01:23;3.47;;;2.28;;
55372;SDS011;70018;47.838;16.490;2023-10-13T03:06:25;4.95;;;2.55;;
55372;SDS011;70018;47.838;16.490;2023-10-13T03:08:59;5.03;;;2.83;;
55372;SDS011;70018;47.838;16.490;2023-10-13T03:11:43;5.47;;;2.60;;
55372;SDS011;70018;47.838;16.490;2023-10-13T03:14:17;2.95;;;1.65;;
55372;SDS011;70018;47.838;16.490;2023-10-13T03:16:55;4.28;;;2.13;;
55372;SDS011;70018;47.838;16.490;2023-10-13T03:19:31;3.05;;;1.90;;
55372;SDS011;70018;47.838;16.490;2023-10-13T03:22:05;10.25;;;2.40;;
55372;SDS011;70018;47.838;16.490;2023-10-13T03:24:39;4.55;;;2.05;;
55372;SDS011;70018;47.838;16.490;2023-10-13T03:27:12;6.63;;;1.98;;
55372;SDS011;70018;47.838;16.490;2023-10-13T03:29:42;4.35;;;2.60;;
55372;SDS011;70018;47.838;16.490;2023-10-13T03:32:11;2.72;;;1.80;;
55372;SDS011;70018;47.838;16.490;2023-10-13T03:34:42;4.47;;;1.90;;
55372;SDS011;70018;47.838;16.490;2023-10-13T03:37:28;3.13;;;1.75;;
55372;SDS011;70018;47.838;16.490;2023-10-13T03:40:08;1.88;;;1.25;;
55372;SDS011;70018;47.838;16.490;2023-10-13T03:42:52;5.43;;;2.25;;
55372;SDS011;70018;47.838;16.490;2023-10-13T03:45:45;2.30;;;1.63;;
55372;SDS011;70018;47.838;16.490;2023-10-13T03:48:15;2.30;;;1.52;;
55372;SDS011;70018;47.838;16.490;2023-10-13T03:53:37;4.45;;;1.60;;
55372;SDS011;70018;47.838;16.490;2023-10-13T03:56:21;3.70;;;1.60;;
55372;SDS011;70018;47.838;16.490;2023-10-13T03:58:58;7.10;;;2.65;;
55372;SDS011;70018;47.838;16.490;2023-10-13T04:01:33;3.75;;;1.85;;
55372;SDS011;70018;47.838;16.490;2023-10-13T04:04:12;4.18;;;1.90;;
55372;SDS011;70018;47.838;16.490;2023-10-13T04:06:42;5.50;;;1.95;;
55372;SDS011;70018;47.838;16.490;2023-10-13T04:09:14;3.63;;;1.55;;
55372;SDS011;70018;47.838;16.490;2023-10-13T04:12:00;13.90;;;3.15;;
55372;SDS011;70018;47.838;16.490;2023-10-13T04:14:33;4.30;;;2.17;;
55372;SDS011;70018;47.838;16.490;2023-10-13T04:17:22;4.82;;;2.17;;
55372;SDS011;70018;47.838;16.490;2023-10-13T04:19:50;5.97;;;2.15;;
55372;SDS011;70018;47.838;16.490;2023-10-13T04:22:33;2.78;;;1.65;;
55372;SDS011;70018;47.838;16.490;2023-10-13T04:25:15;3.60;;;1.67;;
55372;SDS011;70018;47.838;16.490;2023-10-13T04:28:02;3.30;;;1.52;;
55372;SDS011;70018;47.838;16.490;2023-10-13T04:30:50;3.53;;;2.13;;
55372;SDS011;70018;47.838;16.490;2023-10-13T04:33:24;6.05;;;3.13;;
55372;SDS011;70018;47.838;16.490;2023-10-13T04:36:01;4.97;;;2.40;;
55372;SDS011;70018;47.838;16.490;2023-10-13T04:38:51;3.20;;;1.70;;
55372;SDS011;70018;47.838;16.490;2023-10-13T04:41:24;5.47;;;1.80;;
55372;SDS011;70018;47.838;16.490;2023-10-13T04:44:16;2.30;;;1.37;;
55372;SDS011;70018;47.838;16.490;2023-10-13T04:47:10;3.33;;;1.13;;
55372;SDS011;70018;47.838;16.490;2023-10-13T04:49:44;2.95;;;1.40;;
55372;SDS011;70018;47.838;16.490;2023-10-13T04:52:14;3.05;;;1.52;;
55372;SDS011;70018;47.838;16.490;2023-10-13T04:54:59;2.15;;;1.38;;
55372;SDS011;70018;47.838;16.490;2023-10-13T04:57:48;2.75;;;1.70;;
55372;SDS011;70018;47.838;16.490;2023-10-13T05:00:26;4.22;;;1.63;;
55372;SDS011;70018;47.838;16.490;2023-10-13T05:03:12;2.95;;;1.38;;
55372;SDS011;70018;47.838;16.490;2023-10-13T05:06:05;1.50;;;1.00;;
55372;SDS011;70018;47.838;16.490;2023-10-13T05:08:51;3.90;;;1.50;;
55372;SDS011;70018;47.838;16.490;2023-10-13T05:11:36;2.38;;;1.20;;
55372;SDS011;70018;47.838;16.490;2023-10-13T05:14:21;2.65;;;1.70;;
55372;SDS011;70018;47.838;16.490;2023-10-13T05:17:06;3.63;;;1.98;;
55372;SDS011;70018;47.838;16.490;2023-10-13T05:19:55;3.92;;;1.75;;
55372;SDS011;70018;47.838;16.490;2023-10-13T05:22:42;5.35;;;1.73;;
55372;SDS011;70018;47.838;16.490;2023-10-13T05:25:29;7.47;;;2.22;;
55372;SDS011;70018;47.838;16.490;2023-10-13T05:28:14;1.65;;;1.05;;
55372;SDS011;70018;47.838;16.490;2023-10-13T05:31:03;2.75;;;1.40;;
55372;SDS011;70018;47.838;16.490;2023-10-13T05:33:48;4.32;;;1.98;;
55372;SDS011;70018;47.838;16.490;2023-10-13T05:36:33;4.30;;;1.42;;
55372;SDS011;70018;47.838;16.490;2023-10-13T05:39:19;2.28;;;1.35;;
55372;SDS011;70018;47.838;16.490;2023-10-13T05:42:04;1.92;;;1.20;;
55372;SDS011;70018;47.838;16.490;2023-10-13T05:44:49;1.88;;;1.13;;
55372;SDS011;70018;47.838;16.490;2023-10-13T05:47:34;2.03;;;1.20;;
55372;SDS011;70018;47.838;16.490;2023-10-13T05:50:10;3.00;;;1.20;;
55372;SDS011;70018;47.838;16.490;2023-10-13T05:52:49;3.20;;;1.55;;
55372;SDS011;70018;47.838;16.490;2023-10-13T05:55:24;2.22;;;1.20;;
55372;SDS011;70018;47.838;16.490;2023-10-13T05:58:10;4.30;;;1.42;;
55372;SDS011;70018;47.838;16.490;2023-10-13T06:00:56;2.67;;;1.67;;
55372;SDS011;70018;47.838;16.490;2023-10-13T06:03:42;2.67;;;1.45;;
55372;SDS011;70018;47.838;16.490;2023-10-13T06:06:28;1.80;;;1.50;;
55372;SDS011;70018;47.838;16.490;2023-10-13T06:09:13;1.55;;;1.35;;
55372;SDS011;70018;47.838;16.490;2023-10-13T06:12:00;3.53;;;1.98;;
55372;SDS011;70018;47.838;16.490;2023-10-13T06:14:46;1.50;;;1.02;;
55372;SDS011;70018;47.838;16.490;2023-10-13T06:17:31;4.82;;;2.33;;
55372;SDS011;70018;47.838;16.490;2023-10-13T06:20:17;3.55;;;1.65;;
55372;SDS011;70018;47.838;16.490;2023-10-13T06:23:02;4.72;;;2.58;;
55372;SDS011;70018;47.838;16.490;2023-10-13T06:25:51;3.22;;;1.92;;
55372;SDS011;70018;47.838;16.490;2023-10-13T06:28:36;3.08;;;1.63;;
55372;SDS011;70018;47.838;16.490;2023-10-13T06:31:10;3.10;;;1.98;;
55372;SDS011;70018;47.838;16.490;2023-10-13T06:33:52;5.00;;;2.70;;
55372;SDS011;70018;47.838;16.490;2023-10-13T06:36:22;5.72;;;2.88;;
55372;SDS011;70018;47.838;16.490;2023-10-13T06:38:48;5.88;;;1.83;;
55372;SDS011;70018;47.838;16.490;2023-10-13T06:41:44;4.22;;;2.08;;
55372;SDS011;70018;47.838;16.490;2023-10-13T06:44:11;3.75;;;2.05;;
55372;SDS011;70018;47.838;16.490;2023-10-13T06:46:42;4.70;;;2.28;;
55372;SDS011;70018;47.838;16.490;2023-10-13T06:49:10;6.70;;;2.38;;
55372;SDS011;70018;47.838;16.490;2023-10-13T06:51:39;2.13;;;1.48;;
55372;SDS011;70018;47.838;16.490;2023-10-13T06:54:06;4.07;;;2.13;;
55372;SDS011;70018;47.838;16.490;2023-10-13T06:56:37;4.60;;;2.25;;
55372;SDS011;70018;47.838;16.490;2023-10-13T06:59:06;3.22;;;2.00;;
55372;SDS011;70018;47.838;16.490;2023-10-13T07:01:33;4.22;;;2.05;;
55372;SDS011;70018;47.838;16.490;2023-10-13T07:04:07;4.63;;;2.00;;
55372;SDS011;70018;47.838;16.490;2023-10-13T07:06:41;4.07;;;1.98;;
55372;SDS011;70018;47.838;16.490;2023-10-13T07:09:15;3.53;;;1.83;;
55372;SDS011;70018;47.838;16.490;2023-10-13T07:12:03;3.53;;;1.90;;
55372;SDS011;70018;47.838;16.490;2023-10-13T07:14:33;3.25;;;1.90;;
55372;SDS011;70018;47.838;16.490;2023-10-13T07:17:00;3.75;;;1.85;;
55372;SDS011;70018;47.838;16.490;2023-10-13T07:19:31;5.90;;;1.40;;
55372;SDS011;70018;47.838;16.490;2023-10-13T07:22:02;3.05;;;1.65;;
55372;SDS011;70018;47.838;16.490;2023-10-13T07:24:49;4.97;;;1.67;;
55372;SDS011;70018;47.838;16.490;2023-10-13T07:27:17;4.13;;;1.88;;
55372;SDS011;70018;47.838;16.490;2023-10-13T07:32:42;3.35;;;2.00;;
55372;SDS011;70018;47.838;16.490;2023-10-13T07:35:16;4.22;;;2.60;;
55372;SDS011;70018;47.838;16.490;2023-10-13T07:37:49;4.47;;;2.53;;
55372;SDS011;70018;47.838;16.490;2023-10-13T07:40:19;3.80;;;1.88;;
55372;SDS011;70018;47.838;16.490;2023-10-13T07:42:56;5.80;;;2.20;;
55372;SDS011;70018;47.838;16.490;2023-10-13T07:45:36;5.53;;;2.83;;
55372;SDS011;70018;47.838;16.490;2023-10-13T07:48:07;3.70;;;1.90;;
55372;SDS011;70018;47.838;16.490;2023-10-13T07:50:45;3.28;;;2.22;;
55372;SDS011;70018;47.838;16.490;2023-10-13T07:53:12;5.15;;;2.03;;
55372;SDS011;70018;47.838;16.490;2023-10-13T07:55:46;4.47;;;2.60;;
55372;SDS011;70018;47.838;16.490;2023-10-13T07:58:23;4.28;;;2.15;;
55372;SDS011;70018;47.838;16.490;2023-10-13T08:00:51;4.55;;;2.55;;
55372;SDS011;70018;47.838;16.490;2023-10-13T08:03:41;6.90;;;2.42;;
55372;SDS011;70018;47.838;16.490;2023-10-13T08:06:15;3.25;;;1.67;;
55372;SDS011;70018;47.838;16.490;2023-10-13T08:08:47;5.72;;;1.60;;
55372;SDS011;70018;47.838;16.490;2023-10-13T08:11:17;5.25;;;1.90;;
55372;SDS011;70018;47.838;16.490;2023-10-13T08:13:50;4.18;;;1.98;;
55372;SDS011;70018;47.838;16.490;2023-10-13T08:16:33;4.40;;;2.25;;
55372;SDS011;70018;47.838;16.490;2023-10-13T08:19:12;4.63;;;2.35;;
55372;SDS011;70018;47.838;16.490;2023-10-13T08:21:43;4.57;;;1.90;;
55372;SDS011;70018;47.838;16.490;2023-10-13T08:24:40;4.60;;;2.67;;
55372;SDS011;70018;47.838;16.490;2023-10-13T08:27:07;3.72;;;1.92;;
55372;SDS011;70018;47.838;16.490;2023-10-13T08:32:40;3.97;;;2.30;;
55372;SDS011;70018;47.838;16.490;2023-10-13T08:35:21;7.65;;;1.70;;
55372;SDS011;70018;47.838;16.490;2023-10-13T08:37:57;3.90;;;2.15;;
55372;SDS011;70018;47.838;16.490;2023-10-13T08:40:50;3.10;;;2.00;;
55372;SDS011;70018;47.838;16.490;2023-10-13T08:43:35;5.55;;;2.25;;
55372;SDS011;70018;47.838;16.490;2023-10-13T08:46:18;2.67;;;1.88;;
55372;SDS011;70018;47.838;16.490;2023-10-13T08:48:55;8.48;;;2.20;;
55372;SDS011;70018;47.838;16.490;2023-10-13T08:51:34;3.70;;;1.95;;
55372;SDS011;70018;47.838;16.490;2023-10-13T08:54:13;7.38;;;2.17;;
55372;SDS011;70018;47.838;16.490;2023-10-13T08:57:00;8.57;;;2.50;;
55372;SDS011;70018;47.838;16.490;2023-10-13T08:59:46;5.88;;;2.13;;
55372;SDS011;70018;47.838;16.490;2023-10-13T09:02:22;5.60;;;2.08;;
55372;SDS011;70018;47.838;16.490;2023-10-13T09:05:09;3.22;;;1.80;;
55372;SDS011;70018;47.838;16.490;2023-10-13T09:07:56;4.93;;;2.55;;
55372;SDS011;70018;47.838;16.490;2023-10-13T09:10:34;3.88;;;2.00;;
55372;SDS011;70018;47.838;16.490;2023-10-13T09:13:11;3.13;;;1.88;;
55372;SDS011;70018;47.838;16.490;2023-10-13T09:15:45;2.70;;;2.08;;
55372;SDS011;70018;47.838;16.490;2023-10-13T09:18:27;4.65;;;2.05;;
55372;SDS011;70018;47.838;16.490;2023-10-13T09:21:16;5.63;;;2.58;;
55372;SDS011;70018;47.838;16.490;2023-10-13T09:24:10;7.03;;;1.60;;
55372;SDS011;70018;47.838;16.490;2023-10-13T09:26:58;4.00;;;1.88;;
55372;SDS011;70018;47.838;16.490;2023-10-13T09:29:27;6.40;;;2.05;;
55372;SDS011;70018;47.838;16.490;2023-10-13T09:31:59;3.45;;;2.00;;
55372;SDS011;70018;47.838;16.490;2023-10-13T09:34:31;5.35;;;1.77;;
55372;SDS011;70018;47.838;16.490;2023-10-13T09:37:07;6.07;;;1.75;;
55372;SDS011;70018;47.838;16.490;2023-10-13T09:39:39;6.35;;;2.47;;
55372;SDS011;70018;47.838;16.490;2023-10-13T09:42:08;2.90;;;1.75;;
55372;SDS011;70018;47.838;16.490;2023-10-13T09:44:38;5.40;;;2.33;;
55372;SDS011;70018;47.838;16.490;2023-10-13T09:47:10;3.03;;;1.95;;
55372;SDS011;70018;47.838;16.490;2023-10-13T09:49:44;4.55;;;1.60;;
55372;SDS011;70018;47.838;16.490;2023-10-13T09:52:16;5.20;;;2.30;;
55372;SDS011;70018;47.838;16.490;2023-10-13T09:57:40;3.95;;;1.67;;
55372;SDS011;70018;47.838;16.490;2023-10-13T10:00:11;5.90;;;1.80;;
55372;SDS011;70018;47.838;16.490;2023-10-13T10:03:10;4.85;;;2.08;;
55372;SDS011;70018;47.838;16.490;2023-10-13T10:05:57;2.30;;;1.50;;
55372;SDS011;70018;47.838;16.490;2023-10-13T10:08:31;4.93;;;1.77;;
55372;SDS011;70018;47.838;16.490;2023-10-13T10:14:09;2.97;;;1.52;;
55372;SDS011;70018;47.838;16.490;2023-10-13T10:16:43;3.97;;;1.80;;
55372;SDS011;70018;47.838;16.490;2023-10-13T10:19:29;2.38;;;1.35;;
55372;SDS011;70018;47.838;16.490;2023-10-13T10:22:03;3.78;;;1.38;;
55372;SDS011;70018;47.838;16.490;2023-10-13T10:24:43;2.28;;;1.45;;
55372;SDS011;70018;47.838;16.490;2023-10-13T10:27:10;2.75;;;1.45;;
55372;SDS011;70018;47.838;16.490;2023-10-13T10:29:52;3.10;;;1.83;;
55372;SDS011;70018;47.838;16.490;2023-10-13T10:32:20;3.13;;;1.30;;
55372;SDS011;70018;47.838;16.490;2023-10-13T10:34:47;2.65;;;1.40;;
55372;SDS011;70018;47.838;16.490;2023-10-13T10:37:13;6.20;;;1.35;;
55372;SDS011;70018;47.838;16.490;2023-10-13T10:39:42;3.75;;;1.98;;
55372;SDS011;70018;47.838;16.490;2023-10-13T10:42:12;7.05;;;1.42;;
55372;SDS011;70018;47.838;16.490;2023-10-13T10:44:45;3.95;;;1.52;;
55372;SDS011;70018;47.838;16.490;2023-10-13T10:47:14;5.43;;;1.77;;
55372;SDS011;70018;47.838;16.490;2023-10-13T10:49:58;2.33;;;1.52;;
55372;SDS011;70018;47.838;16.490;2023-10-13T10:52:34;4.93;;;1.90;;
55372;SDS011;70018;47.838;16.490;2023-10-13T10:55:05;2.78;;;1.67;;
55372;SDS011;70018;47.838;16.490;2023-10-13T10:57:39;1.85;;;1.27;;
55372;SDS011;70018;47.838;16.490;2023-10-13T11:00:19;7.03;;;1.67;;
55372;SDS011;70018;47.838;16.490;2023-10-13T11:02:56;2.90;;;1.42;;
55372;SDS011;70018;47.838;16.490;2023-10-13T11:05:24;3.28;;;1.33;;
55372;SDS011;70018;47.838;16.490;2023-10-13T11:07:59;2.30;;;1.40;;
55372;SDS011;70018;47.838;16.490;2023-10-13T11:10:30;3.92;;;1.13;;
55372;SDS011;70018;47.838;16.490;2023-10-13T11:12:58;2.92;;;1.30;;
55372;SDS011;70018;47.838;16.490;2023-10-13T11:15:43;2.40;;;1.05;;
55372;SDS011;70018;47.838;16.490;2023-10-13T11:18:12;2.80;;;1.27;;
55372;SDS011;70018;47.838;16.490;2023-10-13T11:20:49;2.58;;;1.25;;
55372;SDS011;70018;47.838;16.490;2023-10-13T11:23:20;2.28;;;1.17;;
55372;SDS011;70018;47.838;16.490;2023-10-13T11:25:58;3.97;;;1.40;;
55372;SDS011;70018;47.838;16.490;2023-10-13T11:28:26;2.60;;;1.42;;
55372;SDS011;70018;47.838;16.490;2023-10-13T11:30:58;3.70;;;1.48;;
55372;SDS011;70018;47.838;16.490;2023-10-13T11:33:26;2.85;;;1.20;;
55372;SDS011;70018;47.838;16.490;2023-10-13T11:35:55;2.85;;;1.20;;
55372;SDS011;70018;47.838;16.490;2023-10-13T11:38:26;4.65;;;1.27;;
55372;SDS011;70018;47.838;16.490;2023-10-13T11:40:58;2.78;;;1.42;;
55372;SDS011;70018;47.838;16.490;2023-10-13T11:43:46;1.90;;;1.00;;
55372;SDS011;70018;47.838;16.490;2023-10-13T11:49:08;3.60;;;1.30;;
55372;SDS011;70018;47.838;16.490;2023-10-13T11:51:42;2.63;;;0.93;;
55372;SDS011;70018;47.838;16.490;2023-10-13T11:54:16;1.42;;;1.00;;
55372;SDS011;70018;47.838;16.490;2023-10-13T11:56:45;2.93;;;0.93;;
55372;SDS011;70018;47.838;16.490;2023-10-13T11:59:12;4.93;;;1.23;;
55372;SDS011;70018;47.838;16.490;2023-10-13T12:01:45;4.70;;;1.00;;
55372;SDS011;70018;47.838;16.490;2023-10-13T12:04:31;2.97;;;1.30;;
55372;SDS011;70018;47.838;16.490;2023-10-13T12:07:07;6.80;;;1.98;;
55372;SDS011;70018;47.838;16.490;2023-10-13T12:09:43;3.00;;;1.15;;
55372;SDS011;70018;47.838;16.490;2023-10-13T12:12:23;3.03;;;1.33;;
55372;SDS011;70018;47.838;16.490;2023-10-13T12:14:51;5.90;;;1.65;;
55372;SDS011;70018;47.838;16.490;2023-10-13T12:17:35;2.80;;;1.55;;
55372;SDS011;70018;47.838;16.490;2023-10-13T12:20:06;3.03;;;1.50;;
55372;SDS011;70018;47.838;16.490;2023-10-13T12:22:37;1.50;;;0.90;;
55372;SDS011;70018;47.838;16.490;2023-10-13T12:25:17;2.38;;;1.15;;
55372;SDS011;70018;47.838;16.490;2023-10-13T12:28:00;3.03;;;1.20;;
55372;SDS011;70018;47.838;16.490;2023-10-13T12:30:45;6.05;;;1.58;;
55372;SDS011;70018;47.838;16.490;2023-10-13T12:33:21;3.80;;;1.13;;
55372;SDS011;70018;47.838;16.490;2023-10-13T12:36:00;3.35;;;1.40;;
55372;SDS011;70018;47.838;16.490;2023-10-13T12:38:47;1.52;;;1.05;;
55372;SDS011;70018;47.838;16.490;2023-10-13T12:41:14;2.25;;;0.93;;
55372;SDS011;70018;47.838;16.490;2023-10-13T12:44:05;1.80;;;0.93;;
55372;SDS011;70018;47.838;16.490;2023-10-13T12:46:51;3.15;;;0.90;;
55372;SDS011;70018;47.838;16.490;2023-10-13T12:49:38;9.88;;;0.90;;
55372;SDS011;70018;47.838;16.490;2023-10-13T12:52:14;7.28;;;1.10;;
55372;SDS011;70018;47.838;16.490;2023-10-13T12:57:34;1.67;;;0.95;;
55372;SDS011;70018;47.838;16.490;2023-10-13T13:00:01;1.77;;;0.85;;
55372;SDS011;70018;47.838;16.490;2023-10-13T13:02:42;1.33;;;0.82;;
55372;SDS011;70018;47.838;16.490;2023-10-13T13:05:09;1.50;;;0.90;;
55372;SDS011;70018;47.838;16.490;2023-10-13T13:07:39;2.10;;;0.98;;
55372;SDS011;70018;47.838;16.490;2023-10-13T13:10:16;2.28;;;1.25;;
55372;SDS011;70018;47.838;16.490;2023-10-13T13:12:43;2.97;;;0.90;;
55372;SDS011;70018;47.838;16.490;2023-10-13T13:15:10;1.88;;;1.10;;
55372;SDS011;70018;47.838;16.490;2023-10-13T13:17:38;3.92;;;1.10;;
55372;SDS011;70018;47.838;16.490;2023-10-13T13:20:06;3.03;;;1.02;;
55372;SDS011;70018;47.838;16.490;2023-10-13T13:22:53;6.57;;;2.20;;
55372;SDS011;70018;47.838;16.490;2023-10-13T13:25:21;1.13;;;0.80;;
55372;SDS011;70018;47.838;16.490;2023-10-13T13:27:52;2.03;;;0.93;;
55372;SDS011;70018;47.838;16.490;2023-10-13T13:30:19;2.33;;;1.27;;
55372;SDS011;70018;47.838;16.490;2023-10-13T13:32:47;1.92;;;1.40;;
55372;SDS011;70018;47.838;16.490;2023-10-13T13:35:14;3.15;;;0.98;;
55372;SDS011;70018;47.838;16.490;2023-10-13T13:37:44;3.13;;;1.30;;
55372;SDS011;70018;47.838;16.490;2023-10-13T13:40:11;2.30;;;1.30;;
55372;SDS011;70018;47.838;16.490;2023-10-13T13:42:42;2.88;;;1.60;;
55372;SDS011;70018;47.838;16.490;2023-10-13T13:45:16;1.05;;;0.70;;
55372;SDS011;70018;47.838;16.490;2023-10-13T13:47:58;2.83;;;1.20;;
55372;SDS011;70018;47.838;16.490;2023-10-13T13:50:25;2.00;;;0.93;;
55372;SDS011;70018;47.838;16.490;2023-10-13T13:52:57;2.33;;;1.00;;
55372;SDS011;70018;47.838;16.490;2023-10-13T13:55:25;1.88;;;1.00;;
55372;SDS011;70018;47.838;16.490;2023-10-13T13:57:55;2.50;;;1.40;;
55372;SDS011;70018;47.838;16.490;2023-10-13T14:00:22;3.10;;;1.45;;
55372;SDS011;70018;47.838;16.490;2023-10-13T14:03:05;3.22;;;1.25;;
55372;SDS011;70018;47.838;16.490;2023-10-13T14:05:42;3.17;;;1.30;;
55372;SDS011;70018;47.838;16.490;2023-10-13T14:08:09;3.45;;;1.30;;
55372;SDS011;70018;47.838;16.490;2023-10-13T14:10:38;5.93;;;1.17;;
55372;SDS011;70018;47.838;16.490;2023-10-13T14:13:23;2.47;;;1.38;;
55372;SDS011;70018;47.838;16.490;2023-10-13T14:16:10;4.45;;;1.15;;
55372;SDS011;70018;47.838;16.490;2023-10-13T14:18:46;2.75;;;1.60;;
55372;SDS011;70018;47.838;16.490;2023-10-13T14:21:14;4.80;;;1.30;;
55372;SDS011;70018;47.838;16.490;2023-10-13T14:23:45;3.20;;;1.10;;
55372;SDS011;70018;47.838;16.490;2023-10-13T14:26:15;3.50;;;1.23;;
55372;SDS011;70018;47.838;16.490;2023-10-13T14:28:51;2.40;;;1.23;;
55372;SDS011;70018;47.838;16.490;2023-10-13T14:31:27;3.00;;;1.25;;
55372;SDS011;70018;47.838;16.490;2023-10-13T14:33:54;1.80;;;1.00;;
55372;SDS011;70018;47.838;16.490;2023-10-13T14:36:21;3.20;;;0.88;;
55372;SDS011;70018;47.838;16.490;2023-10-13T14:38:48;2.78;;;1.20;;
55372;SDS011;70018;47.838;16.490;2023-10-13T14:41:18;3.00;;;0.90;;
55372;SDS011;70018;47.838;16.490;2023-10-13T14:43:45;2.83;;;1.00;;
55372;SDS011;70018;47.838;16.490;2023-10-13T14:46:15;4.93;;;1.27;;
55372;SDS011;70018;47.838;16.490;2023-10-13T14:48:42;2.95;;;1.05;;
55372;SDS011;70018;47.838;16.490;2023-10-13T14:51:13;2.22;;;1.00;;
55372;SDS011;70018;47.838;16.490;2023-10-13T14:53:40;4.18;;;1.30;;
55372;SDS011;70018;47.838;16.490;2023-10-13T14:56:10;1.77;;;1.00;;
55372;SDS011;70018;47.838;16.490;2023-10-13T14:58:40;5.88;;;1.30;;
55372;SDS011;70018;47.838;16.490;2023-10-13T15:01:11;1.58;;;1.10;;
55372;SDS011;70018;47.838;16.490;2023-10-13T15:03:45;4.25;;;1.40;;
55372;SDS011;70018;47.838;16.490;2023-10-13T15:06:16;2.47;;;1.50;;
55372;SDS011;70018;47.838;16.490;2023-10-13T15:09:01;5.15;;;1.52;;
55372;SDS011;70018;47.838;16.490;2023-10-13T15:11:30;5.18;;;1.70;;
55372;SDS011;70018;47.838;16.490;2023-10-13T15:14:14;2.08;;;1.10;;
55372;SDS011;70018;47.838;16.490;2023-10-13T15:16:40;5.10;;;1.40;;
55372;SDS011;70018;47.838;16.490;2023-10-13T15:19:09;4.22;;;1.70;;
55372;SDS011;70018;47.838;16.490;2023-10-13T15:21:36;3.38;;;1.40;;
55372;SDS011;70018;47.838;16.490;2023-10-13T15:24:03;3.75;;;1.58;;
55372;SDS011;70018;47.838;16.490;2023-10-13T15:26:52;2.65;;;1.30;;
55372;SDS011;70018;47.838;16.490;2023-10-13T15:29:28;5.45;;;1.10;;
55372;SDS011;70018;47.838;16.490;2023-10-13T15:32:02;1.88;;;1.30;;
55372;SDS011;70018;47.838;16.490;2023-10-13T15:34:53;3.55;;;1.40;;
55372;SDS011;70018;47.838;16.490;2023-10-13T15:37:20;5.70;;;1.30;;
55372;SDS011;70018;47.838;16.490;2023-10-13T15:39:51;3.85;;;1.23;;
55372;SDS011;70018;47.838;16.490;2023-10-13T15:42:19;4.82;;;1.85;;
55372;SDS011;70018;47.838;16.490;2023-10-13T15:44:47;3.90;;;1.75;;
55372;SDS011;70018;47.838;16.490;2023-10-13T15:47:14;5.47;;;1.77;;
55372;SDS011;70018;47.838;16.490;2023-10-13T15:49:44;4.53;;;2.15;;
55372;SDS011;70018;47.838;16.490;2023-10-13T15:52:11;5.65;;;1.30;;